createdAt,value
2023-02-25T00:00:51.553Z,99.91
2023-02-25T00:02:03.499Z,99.99
2023-02-25T00:02:52.648Z,99.99
2023-02-25T00:03:51.815Z,99.99
2023-02-25T00:04:51.511Z,99.99
2023-02-25T00:05:51.506Z,99.99
2023-02-25T00:06:51.494Z,99.99
2023-02-25T00:07:51.492Z,99.99
2023-02-25T00:08:51.478Z,99.99
2023-02-25T00:09:51.455Z,99.99
2023-02-25T00:10:51.442Z,99.99
2023-02-25T00:11:51.454Z,99.99
2023-02-25T00:12:51.495Z,99.99
2023-02-25T00:13:51.403Z,99.99
2023-02-25T00:14:51.403Z,99.99
2023-02-25T00:15:51.386Z,99.99
2023-02-25T00:16:51.454Z,99.99
2023-02-25T00:17:51.397Z,99.99
2023-02-25T00:18:51.396Z,99.99
2023-02-25T00:19:51.355Z,99.99
2023-02-25T00:20:51.338Z,99.99
2023-02-25T00:21:51.334Z,99.99
2023-02-25T00:22:51.371Z,99.99
2023-02-25T00:23:51.327Z,99.99
2023-02-25T00:24:51.282Z,99.99
2023-02-25T00:25:51.283Z,99.99
2023-02-25T00:26:51.263Z,99.99
2023-02-25T00:27:51.270Z,99.99
2023-02-25T00:28:51.275Z,99.99
2023-02-25T00:29:51.244Z,99.99
2023-02-25T00:30:51.380Z,99.99
2023-02-25T00:31:51.406Z,99.99
2023-02-25T00:32:51.229Z,99.99
2023-02-25T00:33:51.204Z,99.99
2023-02-25T00:34:51.164Z,99.99
2023-02-25T00:35:51.205Z,99.99
2023-02-25T00:36:51.225Z,99.99
2023-02-25T00:37:51.161Z,99.99
2023-02-25T00:38:51.175Z,99.99
2023-02-25T00:39:51.125Z,99.99
2023-02-25T00:40:51.116Z,99.99
2023-02-25T00:41:51.108Z,99.99
2023-02-25T00:42:51.407Z,99.99
2023-02-25T00:43:51.161Z,99.99
2023-02-25T00:44:51.119Z,99.99
2023-02-25T00:45:51.139Z,99.99
2023-02-25T00:46:51.118Z,99.99
2023-02-25T00:47:51.980Z,99.99
2023-02-25T00:48:51.028Z,99.99
2023-02-25T00:49:51.086Z,99.99
2023-02-25T00:50:51.070Z,99.99
2023-02-25T00:51:51.132Z,99.99
2023-02-25T00:52:50.996Z,99.99
2023-02-25T00:53:51.044Z,99.99
2023-02-25T00:54:50.978Z,99.99
2023-02-25T00:55:50.951Z,99.99
2023-02-25T00:56:50.944Z,99.99
2023-02-25T00:57:50.918Z,99.99
2023-02-25T00:58:50.914Z,99.99
2023-02-25T00:59:50.919Z,99.99
2023-02-25T01:00:52.001Z,99.99
2023-02-25T01:01:50.905Z,99.99
2023-02-25T01:02:50.894Z,99.99
2023-02-25T01:03:50.870Z,99.99
2023-02-25T01:04:50.895Z,99.99
2023-02-25T01:05:50.878Z,99.99
2023-02-25T01:06:50.832Z,99.99
2023-02-25T01:07:50.823Z,99.99
2023-02-25T01:08:50.812Z,99.99
2023-02-25T01:09:50.794Z,99.99
2023-02-25T01:10:50.786Z,99.99
2023-02-25T01:11:50.798Z,99.99
2023-02-25T01:12:50.760Z,99.99
2023-02-25T01:13:50.817Z,99.99
2023-02-25T01:14:50.757Z,99.99
2023-02-25T01:15:50.752Z,99.99
2023-02-25T01:16:51.035Z,99.99
2023-02-25T01:17:50.712Z,99.99
2023-02-25T01:18:50.713Z,99.99
2023-02-25T01:19:50.718Z,99.99
2023-02-25T01:20:50.810Z,99.99
2023-02-25T01:21:50.699Z,99.99
2023-02-25T01:22:50.669Z,99.99
2023-02-25T01:23:50.630Z,99.99
2023-02-25T01:24:50.639Z,99.99
2023-02-25T01:25:50.620Z,99.99
2023-02-25T01:26:50.606Z,99.99
2023-02-25T01:27:50.598Z,99.99
2023-02-25T01:28:50.614Z,99.99
2023-02-25T01:29:50.566Z,99.99
2023-02-25T01:30:50.625Z,99.99
2023-02-25T01:31:50.733Z,99.99
2023-02-25T01:32:50.618Z,99.99
2023-02-25T01:33:50.538Z,99.99
2023-02-25T01:34:50.519Z,99.99
2023-02-25T01:35:50.506Z,99.99
2023-02-25T01:36:50.498Z,99.99
2023-02-25T01:37:50.479Z,99.99
2023-02-25T01:38:50.479Z,99.99
2023-02-25T01:39:50.456Z,99.99
2023-02-25T01:40:50.457Z,99.99
2023-02-25T01:41:50.441Z,99.99
2023-02-25T01:42:50.441Z,99.99
2023-02-25T01:43:50.426Z,99.99
2023-02-25T01:44:50.436Z,99.99
2023-02-25T01:45:50.402Z,99.99
2023-02-25T01:46:50.527Z,99.99
2023-02-25T01:47:50.385Z,99.99
2023-02-25T01:48:50.372Z,99.99
2023-02-25T01:49:50.359Z,99.99
2023-02-25T01:50:50.350Z,99.99
2023-02-25T01:51:50.323Z,99.99
2023-02-25T01:52:50.320Z,99.99
2023-02-25T01:53:50.300Z,99.99
2023-02-25T01:54:50.304Z,99.99
2023-02-25T01:55:50.311Z,99.99
2023-02-25T01:56:50.285Z,99.99
2023-02-25T01:57:50.260Z,99.99
2023-02-25T01:58:50.260Z,99.99
2023-02-25T01:59:50.242Z,99.99
2023-02-25T02:00:50.266Z,99.99
2023-02-25T02:01:50.253Z,99.99
2023-02-25T02:02:50.295Z,99.99
2023-02-25T02:03:50.195Z,99.99
2023-02-25T02:04:50.277Z,99.99
2023-02-25T02:05:50.187Z,99.99
2023-02-25T02:06:50.175Z,99.99
2023-02-25T02:07:50.155Z,99.99
2023-02-25T02:08:50.440Z,99.99
2023-02-25T02:09:50.145Z,99.99
2023-02-25T02:10:50.144Z,99.99
2023-02-25T02:11:50.265Z,99.99
2023-02-25T02:12:50.100Z,99.99
2023-02-25T02:13:50.103Z,99.99
2023-02-25T02:14:50.104Z,99.99
2023-02-25T02:15:50.181Z,99.99
2023-02-25T02:16:50.058Z,99.99
2023-02-25T02:17:50.046Z,99.99
2023-02-25T02:18:50.053Z,99.99
2023-02-25T02:19:50.031Z,99.99
2023-02-25T02:20:50.024Z,99.99
2023-02-25T02:21:50.002Z,99.99
2023-02-25T02:22:50.002Z,99.99
2023-02-25T02:23:49.987Z,99.99
2023-02-25T02:24:49.968Z,99.99
2023-02-25T02:25:50.004Z,99.99
2023-02-25T02:26:49.995Z,99.99
2023-02-25T02:27:49.933Z,99.99
2023-02-25T02:28:49.934Z,99.99
2023-02-25T02:29:49.914Z,99.99
2023-02-25T02:30:50.074Z,99.99
2023-02-25T02:31:49.987Z,99.99
2023-02-25T02:32:49.882Z,99.99
2023-02-25T02:33:49.876Z,99.99
2023-02-25T02:34:49.871Z,99.99
2023-02-25T02:35:49.870Z,99.99
2023-02-25T02:36:49.862Z,99.99
2023-02-25T02:37:49.823Z,99.99
2023-02-25T02:38:49.850Z,99.99
2023-02-25T02:39:49.802Z,99.99
2023-02-25T02:40:49.810Z,99.99
2023-02-25T02:41:49.770Z,99.99
2023-02-25T02:42:50.030Z,99.99
2023-02-25T02:43:49.751Z,99.99
2023-02-25T02:44:49.754Z,99.99
2023-02-25T02:45:49.800Z,99.99
2023-02-25T02:46:49.736Z,99.99
2023-02-25T02:47:49.712Z,99.99
2023-02-25T02:48:49.709Z,99.99
2023-02-25T02:49:49.702Z,99.99
2023-02-25T02:50:49.707Z,99.99
2023-02-25T02:51:49.671Z,99.99
2023-02-25T02:52:49.654Z,99.99
2023-02-25T02:53:49.666Z,99.99
2023-02-25T02:54:49.633Z,99.99
2023-02-25T02:55:49.733Z,99.99
2023-02-25T02:56:49.613Z,99.99
2023-02-25T02:57:49.598Z,99.99
2023-02-25T02:58:49.594Z,99.99
2023-02-25T02:59:49.580Z,99.99
2023-02-25T03:00:50.062Z,99.99
2023-02-25T03:01:49.579Z,99.99
2023-02-25T03:02:49.565Z,99.99
2023-02-25T03:03:49.577Z,99.99
2023-02-25T03:04:49.533Z,99.99
2023-02-25T03:05:49.521Z,99.99
2023-02-25T03:06:49.553Z,99.99
2023-02-25T03:07:49.484Z,99.99
2023-02-25T03:08:49.485Z,99.99
2023-02-25T03:09:49.456Z,99.99
2023-02-25T03:10:49.459Z,99.99
2023-02-25T03:11:49.443Z,99.99
2023-02-25T03:12:49.459Z,99.99
2023-02-25T03:13:49.429Z,99.99
2023-02-25T03:14:49.442Z,99.99
2023-02-25T03:15:49.414Z,99.99
2023-02-25T03:16:49.609Z,99.99
2023-02-25T03:17:49.371Z,99.99
2023-02-25T03:18:49.406Z,99.99
2023-02-25T03:19:49.389Z,99.99
2023-02-25T03:20:49.354Z,99.99
2023-02-25T03:21:49.337Z,99.99
2023-02-25T03:22:49.328Z,99.99
2023-02-25T03:23:49.333Z,99.99
2023-02-25T03:24:49.324Z,99.99
2023-02-25T03:25:49.289Z,99.99
2023-02-25T03:26:49.285Z,99.99
2023-02-25T03:27:49.278Z,99.99
2023-02-25T03:28:49.271Z,99.99
2023-02-25T03:29:49.249Z,99.99
2023-02-25T03:30:49.658Z,99.99
2023-02-25T03:31:49.328Z,99.99
2023-02-25T03:32:49.322Z,99.99
2023-02-25T03:33:49.207Z,99.99
2023-02-25T03:34:49.200Z,99.99
2023-02-25T03:35:49.453Z,99.99
2023-02-25T03:36:49.185Z,99.99
2023-02-25T03:37:49.166Z,99.99
2023-02-25T03:38:49.160Z,99.99
2023-02-25T03:39:49.143Z,99.99
2023-02-25T03:40:49.181Z,99.99
2023-02-25T03:41:49.129Z,99.99
2023-02-25T03:42:49.111Z,99.99
2023-02-25T03:43:49.098Z,99.99
2023-02-25T03:44:49.102Z,99.99
2023-02-25T03:45:49.115Z,99.99
2023-02-25T03:46:49.094Z,99.99
2023-02-25T03:47:49.095Z,99.99
2023-02-25T03:48:49.055Z,99.99
2023-02-25T03:49:49.031Z,99.99
2023-02-25T03:50:49.047Z,99.99
2023-02-25T03:51:49.013Z,99.99
2023-02-25T03:52:49.051Z,99.99
2023-02-25T03:53:48.980Z,99.99
2023-02-25T03:54:48.990Z,99.99
2023-02-25T03:55:48.955Z,99.99
2023-02-25T03:56:48.958Z,99.99
2023-02-25T03:57:48.960Z,99.99
2023-02-25T03:58:48.949Z,99.99
2023-02-25T03:59:48.910Z,99.99
2023-02-25T04:00:48.917Z,99.99
2023-02-25T04:01:48.893Z,99.99
2023-02-25T04:02:48.990Z,99.99
2023-02-25T04:03:48.882Z,99.99
2023-02-25T04:04:48.972Z,99.99
2023-02-25T04:05:48.862Z,99.99
2023-02-25T04:06:48.848Z,99.99
2023-02-25T04:07:48.816Z,99.99
2023-02-25T04:08:48.830Z,99.99
2023-02-25T04:09:48.831Z,99.99
2023-02-25T04:10:48.826Z,99.99
2023-02-25T04:11:48.771Z,99.99
2023-02-25T04:12:48.792Z,99.99
2023-02-25T04:13:48.768Z,99.99
2023-02-25T04:14:48.764Z,99.99
2023-02-25T04:15:48.787Z,99.99
2023-02-25T04:16:48.732Z,99.99
2023-02-25T04:17:48.716Z,99.99
2023-02-25T04:18:48.739Z,99.99
2023-02-25T04:19:48.679Z,99.99
2023-02-25T04:20:49.431Z,99.99
2023-02-25T04:21:48.665Z,99.99
2023-02-25T04:22:48.686Z,99.99
2023-02-25T04:23:48.651Z,99.99
2023-02-25T04:24:48.660Z,99.99
2023-02-25T04:25:48.640Z,99.99
2023-02-25T04:26:48.628Z,99.99
2023-02-25T04:27:48.598Z,99.99
2023-02-25T04:28:48.593Z,99.99
2023-02-25T04:29:48.613Z,99.99
2023-02-25T04:30:48.668Z,99.99
2023-02-25T04:31:48.736Z,99.99
2023-02-25T04:32:48.647Z,99.99
2023-02-25T04:33:48.533Z,99.99
2023-02-25T04:34:48.561Z,99.99
2023-02-25T04:35:48.514Z,99.99
2023-02-25T04:36:48.509Z,99.99
2023-02-25T04:37:48.504Z,99.99
2023-02-25T04:38:48.498Z,99.99
2023-02-25T04:39:48.497Z,99.99
2023-02-25T04:40:48.489Z,99.99
2023-02-25T04:41:48.466Z,99.99
2023-02-25T04:42:48.464Z,99.99
2023-02-25T04:43:48.430Z,99.99
2023-02-25T04:44:48.427Z,99.99
2023-02-25T04:45:48.432Z,99.99
2023-02-25T04:46:48.460Z,99.99
2023-02-25T04:47:48.377Z,99.99
2023-02-25T04:48:48.369Z,99.99
2023-02-25T04:49:48.372Z,99.99
2023-02-25T04:50:48.376Z,99.99
2023-02-25T04:51:48.358Z,99.99
2023-02-25T04:52:48.341Z,99.99
2023-02-25T04:53:48.324Z,99.99
2023-02-25T04:54:48.312Z,99.99
2023-02-25T04:55:48.303Z,99.99
2023-02-25T04:56:48.302Z,99.99
2023-02-25T04:57:48.270Z,99.99
2023-02-25T04:58:48.275Z,99.99
2023-02-25T04:59:48.266Z,99.99
2023-02-25T05:00:48.243Z,99.99
2023-02-25T05:01:48.250Z,99.99
2023-02-25T05:02:48.210Z,99.99
2023-02-25T05:03:48.236Z,99.99
2023-02-25T05:04:48.232Z,99.99
2023-02-25T05:05:48.212Z,99.99
2023-02-25T05:06:48.191Z,99.99
2023-02-25T05:07:48.172Z,99.99
2023-02-25T05:08:48.245Z,99.99
2023-02-25T05:09:48.153Z,99.99
2023-02-25T05:10:48.128Z,99.99
2023-02-25T05:11:48.135Z,99.99
2023-02-25T05:12:48.126Z,99.99
2023-02-25T05:13:48.109Z,99.99
2023-02-25T05:14:48.095Z,99.99
2023-02-25T05:15:48.209Z,99.99
2023-02-25T05:16:48.065Z,99.99
2023-02-25T05:17:48.076Z,99.99
2023-02-25T05:18:48.044Z,99.99
2023-02-25T05:19:48.032Z,99.99
2023-02-25T05:20:48.028Z,99.99
2023-02-25T05:21:48.029Z,99.99
2023-02-25T05:22:47.996Z,99.99
2023-02-25T05:23:48.017Z,99.99
2023-02-25T05:24:47.976Z,99.99
2023-02-25T05:25:47.992Z,99.99
2023-02-25T05:26:47.954Z,99.99
2023-02-25T05:27:47.962Z,99.99
2023-02-25T05:28:48.044Z,99.99
2023-02-25T05:29:47.990Z,99.99
2023-02-25T05:30:47.926Z,99.99
2023-02-25T05:31:48.153Z,99.99
2023-02-25T05:32:47.988Z,99.99
2023-02-25T05:33:47.894Z,99.99
2023-02-25T05:34:47.875Z,99.99
2023-02-25T05:35:47.875Z,99.99
2023-02-25T05:36:47.835Z,99.99
2023-02-25T05:37:47.841Z,99.99
2023-02-25T05:38:47.819Z,99.99
2023-02-25T05:39:47.843Z,99.99
2023-02-25T05:40:47.794Z,99.99
2023-02-25T05:41:47.805Z,99.99
2023-02-25T05:42:47.778Z,99.99
2023-02-25T05:43:47.763Z,99.99
2023-02-25T05:44:47.756Z,99.99
2023-02-25T05:45:47.740Z,99.99
2023-02-25T05:46:47.816Z,99.99
2023-02-25T05:47:47.731Z,99.99
2023-02-25T05:48:47.711Z,99.99
2023-02-25T05:49:47.721Z,99.99
2023-02-25T05:50:47.691Z,99.99
2023-02-25T05:51:47.705Z,99.99
2023-02-25T05:52:47.660Z,99.99
2023-02-25T05:53:47.660Z,99.99
2023-02-25T05:54:47.631Z,99.99
2023-02-25T05:55:47.659Z,99.99
2023-02-25T05:56:47.631Z,99.99
2023-02-25T05:57:47.610Z,99.99
2023-02-25T05:58:47.599Z,99.99
2023-02-25T05:59:47.610Z,99.99
2023-02-25T06:00:47.588Z,99.99
2023-02-25T06:01:47.626Z,99.99
2023-02-25T06:02:47.591Z,99.99
2023-02-25T06:03:47.550Z,99.99
2023-02-25T06:04:47.552Z,99.99
2023-02-25T06:05:48.067Z,99.99
2023-02-25T06:06:47.497Z,99.99
2023-02-25T06:07:47.500Z,99.99
2023-02-25T06:08:47.562Z,99.99
2023-02-25T06:09:47.477Z,99.99
2023-02-25T06:10:47.458Z,99.99
2023-02-25T06:11:47.444Z,99.99
2023-02-25T06:12:47.450Z,99.99
2023-02-25T06:13:47.436Z,99.99
2023-02-25T06:14:47.408Z,99.99
2023-02-25T06:15:47.410Z,99.99
2023-02-25T06:16:47.435Z,99.99
2023-02-25T06:17:47.390Z,99.99
2023-02-25T06:18:47.382Z,99.99
2023-02-25T06:19:47.371Z,99.99
2023-02-25T06:20:47.396Z,99.99
2023-02-25T06:21:47.335Z,99.99
2023-02-25T06:22:47.326Z,99.99
2023-02-25T06:23:47.328Z,99.99
2023-02-25T06:24:47.308Z,99.99
2023-02-25T06:25:47.309Z,99.99
2023-02-25T06:26:47.290Z,99.99
2023-02-25T06:27:47.290Z,99.99
2023-02-25T06:28:47.276Z,99.99
2023-02-25T06:29:47.256Z,99.99
2023-02-25T06:30:47.266Z,99.99
2023-02-25T06:31:47.374Z,99.99
2023-02-25T06:32:47.260Z,99.99
2023-02-25T06:33:47.232Z,99.99
2023-02-25T06:34:47.197Z,99.99
2023-02-25T06:35:47.210Z,99.99
2023-02-25T06:36:47.184Z,99.99
2023-02-25T06:37:47.167Z,99.99
2023-02-25T06:38:47.171Z,99.99
2023-02-25T06:39:47.166Z,99.99
2023-02-25T06:40:47.125Z,99.99
2023-02-25T06:41:47.134Z,99.99
2023-02-25T06:42:47.116Z,99.99
2023-02-25T06:43:47.106Z,99.99
2023-02-25T06:44:47.078Z,99.99
2023-02-25T06:45:47.121Z,99.99
2023-02-25T06:46:47.046Z,99.99
2023-02-25T06:47:47.107Z,99.99
2023-02-25T06:48:47.034Z,99.99
2023-02-25T06:49:47.068Z,99.99
2023-02-25T06:50:47.017Z,99.99
2023-02-25T06:51:47.016Z,99.99
2023-02-25T06:52:46.989Z,99.99
2023-02-25T06:53:46.984Z,99.99
2023-02-25T06:54:46.985Z,99.99
2023-02-25T06:55:46.981Z,99.99
2023-02-25T06:56:46.970Z,99.99
2023-02-25T06:57:46.947Z,99.99
2023-02-25T06:58:46.940Z,99.99
2023-02-25T06:59:47.013Z,99.99
2023-02-25T07:00:47.171Z,99.99
2023-02-25T07:01:46.912Z,99.99
2023-02-25T07:02:46.899Z,99.99
2023-02-25T07:03:46.879Z,99.99
2023-02-25T07:04:46.930Z,99.99
2023-02-25T07:05:46.858Z,99.99
2023-02-25T07:06:46.829Z,99.99
2023-02-25T07:07:46.813Z,99.99
2023-02-25T07:08:46.865Z,99.99
2023-02-25T07:09:46.833Z,99.99
2023-02-25T07:10:46.794Z,99.99
2023-02-25T07:11:46.801Z,99.99
2023-02-25T07:12:46.784Z,99.99
2023-02-25T07:13:46.764Z,99.99
2023-02-25T07:14:46.760Z,99.99
2023-02-25T07:15:46.796Z,99.99
2023-02-25T07:16:46.730Z,99.99
2023-02-25T07:17:46.717Z,99.99
2023-02-25T07:18:46.716Z,99.99
2023-02-25T07:19:46.693Z,99.99
2023-02-25T07:20:46.692Z,99.99
2023-02-25T07:21:46.681Z,99.99
2023-02-25T07:22:46.701Z,99.99
2023-02-25T07:23:46.650Z,99.99
2023-02-25T07:24:46.729Z,99.99
2023-02-25T07:25:46.657Z,99.99
2023-02-25T07:26:46.613Z,99.99
2023-02-25T07:27:46.613Z,99.99
2023-02-25T07:28:46.596Z,99.99
2023-02-25T07:29:46.622Z,99.99
2023-02-25T07:30:46.780Z,99.99
2023-02-25T07:31:46.807Z,99.99
2023-02-25T07:32:46.649Z,99.99
2023-02-25T07:33:46.537Z,99.99
2023-02-25T07:34:46.521Z,99.99
2023-02-25T07:35:46.518Z,99.99
2023-02-25T07:36:46.507Z,99.99
2023-02-25T07:37:46.506Z,99.99
2023-02-25T07:38:46.476Z,99.99
2023-02-25T07:39:47.772Z,99.99
2023-02-25T07:40:46.463Z,99.99
2023-02-25T07:41:46.443Z,99.99
2023-02-25T07:42:46.415Z,99.99
2023-02-25T07:43:46.436Z,99.99
2023-02-25T07:44:46.467Z,99.99
2023-02-25T07:45:46.483Z,99.99
2023-02-25T07:46:46.406Z,99.99
2023-02-25T07:47:46.376Z,99.99
2023-02-25T07:48:46.517Z,99.99
2023-02-25T07:49:46.365Z,99.99
2023-02-25T07:50:46.358Z,99.99
2023-02-25T07:51:46.342Z,99.99
2023-02-25T07:52:46.354Z,99.99
2023-02-25T07:53:46.327Z,99.99
2023-02-25T07:54:46.295Z,99.99
2023-02-25T07:55:46.352Z,99.99
2023-02-25T07:56:46.280Z,99.99
2023-02-25T07:57:46.289Z,99.99
2023-02-25T07:58:46.266Z,99.99
2023-02-25T07:59:46.309Z,99.99
2023-02-25T08:00:46.269Z,99.99
2023-02-25T08:01:46.254Z,99.99
2023-02-25T08:02:46.240Z,99.99
2023-02-25T08:03:46.209Z,99.99
2023-02-25T08:04:46.276Z,99.99
2023-02-25T08:05:46.180Z,99.99
2023-02-25T08:06:46.189Z,99.99
2023-02-25T08:07:46.167Z,99.99
2023-02-25T08:08:46.141Z,99.99
2023-02-25T08:09:46.139Z,99.99
2023-02-25T08:10:46.163Z,99.99
2023-02-25T08:11:46.118Z,99.99
2023-02-25T08:12:46.086Z,99.99
2023-02-25T08:13:46.095Z,99.99
2023-02-25T08:14:46.074Z,99.99
2023-02-25T08:15:46.094Z,99.99
2023-02-25T08:16:46.078Z,99.99
2023-02-25T08:17:46.087Z,99.99
2023-02-25T08:18:46.039Z,99.99
2023-02-25T08:19:46.026Z,99.99
2023-02-25T08:20:46.008Z,99.99
2023-02-25T08:21:46.012Z,99.99
2023-02-25T08:22:46.012Z,99.99
2023-02-25T08:23:45.975Z,99.99
2023-02-25T08:24:45.967Z,99.99
2023-02-25T08:25:45.964Z,99.99
2023-02-25T08:26:45.944Z,99.99
2023-02-25T08:27:45.955Z,99.99
2023-02-25T08:28:45.948Z,99.99
2023-02-25T08:29:45.915Z,99.99
2023-02-25T08:30:45.938Z,99.99
2023-02-25T08:31:46.115Z,99.99
2023-02-25T08:32:46.083Z,99.99
2023-02-25T08:33:45.865Z,99.99
2023-02-25T08:34:48.678Z,99.99
2023-02-25T08:35:45.844Z,99.99
2023-02-25T08:36:45.839Z,99.99
2023-02-25T08:37:45.881Z,99.99
2023-02-25T08:38:45.825Z,99.99
2023-02-25T08:39:45.903Z,99.99
2023-02-25T08:40:45.798Z,99.99
2023-02-25T08:41:45.795Z,99.99
2023-02-25T08:42:45.774Z,99.99
2023-02-25T08:43:45.746Z,99.99
2023-02-25T08:44:45.736Z,99.99
2023-02-25T08:45:45.770Z,99.99
2023-02-25T08:46:45.737Z,99.99
2023-02-25T08:47:45.705Z,99.99
2023-02-25T08:48:45.695Z,99.99
2023-02-25T08:49:45.688Z,99.99
2023-02-25T08:50:45.698Z,99.99
2023-02-25T08:51:45.666Z,99.99
2023-02-25T08:52:45.646Z,99.99
2023-02-25T08:53:45.630Z,99.99
2023-02-25T08:54:45.640Z,99.99
2023-02-25T08:55:45.633Z,99.99
2023-02-25T08:56:45.694Z,99.99
2023-02-25T08:57:45.601Z,99.99
2023-02-25T08:58:45.569Z,99.99
2023-02-25T08:59:45.573Z,99.99
2023-02-25T09:00:45.614Z,99.99
2023-02-25T09:01:45.792Z,99.99
2023-02-25T09:02:45.530Z,99.99
2023-02-25T09:03:45.530Z,99.99
2023-02-25T09:04:45.578Z,99.99
2023-02-25T09:05:45.501Z,99.99
2023-02-25T09:06:45.508Z,99.99
2023-02-25T09:07:45.490Z,99.99
2023-02-25T09:08:45.460Z,99.99
2023-02-25T09:09:45.484Z,99.99
2023-02-25T09:10:50.677Z,99.99
2023-02-25T09:11:46.576Z,99.99
2023-02-25T09:12:45.441Z,99.99
2023-02-25T09:13:45.421Z,99.99
2023-02-25T09:14:45.396Z,99.99
2023-02-25T09:15:45.431Z,99.99
2023-02-25T09:16:45.592Z,99.99
2023-02-25T09:17:45.370Z,99.99
2023-02-25T09:18:45.367Z,99.99
2023-02-25T09:19:45.349Z,99.99
2023-02-25T09:20:45.343Z,99.99
2023-02-25T09:21:45.339Z,99.99
2023-02-25T09:22:45.369Z,99.99
2023-02-25T09:23:45.302Z,99.99
2023-02-25T09:24:45.291Z,99.99
2023-02-25T09:25:45.268Z,99.99
2023-02-25T09:26:45.284Z,99.99
2023-02-25T09:27:45.283Z,99.99
2023-02-25T09:28:45.251Z,99.99
2023-02-25T09:29:45.259Z,99.99
2023-02-25T09:30:45.248Z,99.99
2023-02-25T09:31:45.426Z,99.99
2023-02-25T09:32:45.283Z,99.99
2023-02-25T09:33:45.208Z,99.99
2023-02-25T09:34:45.187Z,99.99
2023-02-25T09:35:45.211Z,99.99
2023-02-25T09:36:45.185Z,99.99
2023-02-25T09:37:45.140Z,99.99
2023-02-25T09:38:45.151Z,99.99
2023-02-25T09:39:45.142Z,99.99
2023-02-25T09:40:45.121Z,99.99
2023-02-25T09:41:45.107Z,99.99
2023-02-25T09:42:45.097Z,99.99
2023-02-25T09:43:45.081Z,99.99
2023-02-25T09:44:45.104Z,99.71
2023-02-25T09:45:45.116Z,99.99
2023-02-25T09:46:45.305Z,99.82
2023-02-25T09:47:45.074Z,99.40
2023-02-25T09:48:46.308Z,98.88
2023-02-25T09:49:45.019Z,98.68
2023-02-25T09:50:45.034Z,98.88
2023-02-25T09:51:44.991Z,99.09
2023-02-25T09:52:45.016Z,98.99
2023-02-25T09:53:44.981Z,98.05
2023-02-25T09:54:44.995Z,98.05
2023-02-25T09:55:44.942Z,98.47
2023-02-25T09:56:44.953Z,98.78
2023-02-25T09:57:44.923Z,98.78
2023-02-25T09:58:44.925Z,99.09
2023-02-25T09:59:44.923Z,98.88
2023-02-25T10:00:44.913Z,98.26
2023-02-25T10:01:44.884Z,97.95
2023-02-25T10:02:44.998Z,97.64
2023-02-25T10:03:44.876Z,97.53
2023-02-25T10:04:44.852Z,97.74
2023-02-25T10:05:44.876Z,98.26
2023-02-25T10:06:44.826Z,97.74
2023-02-25T10:07:44.814Z,97.02
2023-02-25T10:08:44.814Z,96.08
2023-02-25T10:09:44.796Z,95.87
2023-02-25T10:10:44.805Z,96.50
2023-02-25T10:11:44.813Z,94.94
2023-02-25T10:12:44.764Z,94.42
2023-02-25T10:13:44.750Z,92.76
2023-02-25T10:14:44.751Z,91.62
2023-02-25T10:15:52.173Z,92.55
2023-02-25T10:16:45.753Z,92.72
2023-02-25T10:17:44.721Z,92.30
2023-02-25T10:18:44.707Z,91.37
2023-02-25T10:19:44.686Z,88.98
2023-02-25T10:20:44.677Z,86.29
2023-02-25T10:21:44.694Z,84.00
2023-02-25T10:22:44.659Z,82.86
2023-02-25T10:23:44.652Z,82.24
2023-02-25T10:24:44.646Z,82.45
2023-02-25T10:25:44.617Z,82.86
2023-02-25T10:26:44.628Z,82.14
2023-02-25T10:27:44.593Z,82.55
2023-02-25T10:28:44.590Z,82.24
2023-02-25T10:29:44.564Z,81.48
2023-02-25T10:30:44.611Z,81.99
2023-02-25T10:31:44.732Z,81.68
2023-02-25T10:32:44.631Z,81.99
2023-02-25T10:33:44.527Z,80.33
2023-02-25T10:34:44.512Z,81.37
2023-02-25T10:35:44.495Z,83.76
2023-02-25T10:36:44.542Z,83.51
2023-02-25T10:37:44.507Z,80.78
2023-02-25T10:38:44.480Z,78.81
2023-02-25T10:39:44.459Z,75.71
2023-02-25T10:40:44.454Z,74.57
2023-02-25T10:41:44.434Z,74.36
2023-02-25T10:42:44.462Z,75.09
2023-02-25T10:43:44.436Z,75.81
2023-02-25T10:44:44.403Z,74.98
2023-02-25T10:45:44.431Z,75.40
2023-02-25T10:46:44.424Z,74.46
2023-02-25T10:47:44.367Z,73.36
2023-02-25T10:48:44.374Z,73.25
2023-02-25T10:49:44.342Z,74.91
2023-02-25T10:50:46.201Z,73.67
2023-02-25T10:51:44.343Z,73.88
2023-02-25T10:52:44.327Z,76.05
2023-02-25T10:53:44.304Z,75.84
2023-02-25T10:54:44.317Z,76.05
2023-02-25T10:55:44.289Z,74.19
2023-02-25T10:56:44.403Z,73.57
2023-02-25T10:57:44.253Z,72.11
2023-02-25T10:58:44.282Z,73.49
2023-02-25T10:59:44.232Z,73.39
2023-02-25T11:00:44.260Z,73.70
2023-02-25T11:01:44.276Z,74.22
2023-02-25T11:02:44.297Z,74.74
2023-02-25T11:03:44.182Z,75.98
2023-02-25T11:04:44.193Z,73.60
2023-02-25T11:05:44.193Z,74.32
2023-02-25T11:06:44.186Z,74.84
2023-02-25T11:07:44.142Z,74.01
2023-02-25T11:08:44.153Z,73.60
2023-02-25T11:09:44.125Z,74.53
2023-02-25T11:10:44.122Z,75.29
2023-02-25T11:11:44.276Z,73.74
2023-02-25T11:12:44.114Z,72.70
2023-02-25T11:13:44.110Z,73.32
2023-02-25T11:14:44.077Z,74.05
2023-02-25T11:15:46.210Z,73.94
2023-02-25T11:16:44.200Z,73.53
2023-02-25T11:17:44.046Z,74.05
2023-02-25T11:18:44.176Z,71.56
2023-02-25T11:19:44.016Z,71.97
2023-02-25T11:20:44.011Z,73.11
2023-02-25T11:21:43.991Z,72.80
2023-02-25T11:22:44.002Z,73.43
2023-02-25T11:23:43.992Z,72.28
2023-02-25T11:24:43.977Z,72.88
2023-02-25T11:25:43.977Z,74.60
2023-02-25T11:26:43.959Z,73.84
2023-02-25T11:27:43.935Z,72.25
2023-02-25T11:28:43.928Z,71.73
2023-02-25T11:29:43.902Z,70.50
2023-02-25T11:30:43.964Z,69.08
2023-02-25T11:31:44.168Z,69.60
2023-02-25T11:32:43.893Z,69.49
2023-02-25T11:33:43.867Z,68.28
2023-02-25T11:34:43.856Z,68.28
2023-02-25T11:35:43.832Z,68.18
2023-02-25T11:36:43.836Z,68.28
2023-02-25T11:37:45.571Z,67.83
2023-02-25T11:38:43.818Z,67.21
2023-02-25T11:39:43.790Z,69.56
2023-02-25T11:40:43.782Z,66.87
2023-02-25T11:41:43.792Z,67.57
2023-02-25T11:42:43.769Z,67.77
2023-02-25T11:43:43.790Z,67.98
2023-02-25T11:44:43.738Z,68.15
2023-02-25T11:45:43.722Z,65.36
2023-02-25T11:46:43.752Z,64.84
2023-02-25T11:47:43.726Z,63.95
2023-02-25T11:48:43.701Z,63.64
2023-02-25T11:49:43.700Z,64.70
2023-02-25T11:50:43.690Z,63.97
2023-02-25T11:51:43.689Z,64.59
2023-02-25T11:52:43.668Z,66.77
2023-02-25T11:53:43.687Z,66.12
2023-02-25T11:54:43.632Z,64.04
2023-02-25T11:55:43.609Z,63.92
2023-02-25T11:56:43.622Z,62.57
2023-02-25T11:57:43.657Z,62.26
2023-02-25T11:58:43.588Z,62.29
2023-02-25T11:59:43.580Z,61.57
2023-02-25T12:00:43.557Z,61.90
2023-02-25T12:01:43.548Z,63.35
2023-02-25T12:02:43.769Z,62.32
2023-02-25T12:03:43.538Z,62.73
2023-02-25T12:04:43.522Z,64.04
2023-02-25T12:05:43.582Z,62.81
2023-02-25T12:06:43.499Z,61.22
2023-02-25T12:07:55.465Z,61.74
2023-02-25T12:08:44.471Z,61.92
2023-02-25T12:09:43.596Z,60.30
2023-02-25T12:10:43.467Z,60.71
2023-02-25T12:11:43.439Z,60.91
2023-02-25T12:12:43.427Z,61.22
2023-02-25T12:13:43.417Z,62.46
2023-02-25T12:14:43.419Z,61.74
2023-02-25T12:15:43.375Z,61.95
2023-02-25T12:16:44.493Z,62.34
2023-02-25T12:17:43.364Z,62.02
2023-02-25T12:18:43.368Z,61.40
2023-02-25T12:19:43.348Z,61.10
2023-02-25T12:20:43.340Z,60.99
2023-02-25T12:21:43.320Z,59.99
2023-02-25T12:22:43.311Z,61.20
2023-02-25T12:23:43.297Z,60.47
2023-02-25T12:24:43.311Z,59.75
2023-02-25T12:25:43.293Z,60.65
2023-02-25T12:26:43.276Z,59.10
2023-02-25T12:27:43.252Z,58.79
2023-02-25T12:28:43.249Z,59.13
2023-02-25T12:29:43.300Z,59.72
2023-02-25T12:30:43.238Z,61.38
2023-02-25T12:31:43.323Z,60.55
2023-02-25T12:32:43.204Z,59.59
2023-02-25T12:33:43.190Z,58.76
2023-02-25T12:34:43.180Z,60.11
2023-02-25T12:35:43.193Z,58.25
2023-02-25T12:36:43.168Z,60.93
2023-02-25T12:37:43.185Z,62.46
2023-02-25T12:38:43.138Z,62.32
2023-02-25T12:39:43.117Z,60.36
2023-02-25T12:40:43.121Z,59.44
2023-02-25T12:41:43.119Z,58.71
2023-02-25T12:42:43.100Z,59.25
2023-02-25T12:43:43.069Z,60.11
2023-02-25T12:44:43.067Z,60.00
2023-02-25T12:45:43.094Z,60.65
2023-02-25T12:46:43.048Z,60.55
2023-02-25T12:47:43.031Z,59.85
2023-02-25T12:48:43.019Z,61.61
2023-02-25T12:49:43.027Z,61.51
2023-02-25T12:50:43.009Z,61.92
2023-02-25T12:51:43.030Z,61.85
2023-02-25T12:52:42.990Z,62.46